24分钟前
罗盘
风向 的 风向 290°
风: 12 千吨, 4 beaufort

添加一条跑道以查看侧风和逆风信息。

添加跑道
0 500 1.500 3.000 5.000 8.000 10.000
BKN 8.800 ft
METAR CYYZ 250700Z 29012KT 15SM BKN088 M08/M10 A2973 RMK AC6 SLP080

METAR定义 | 嵌入

24小时趋势

航班类别VFRLIFR
温度-6 °C-16 °C
风速12 千吨0 千吨
能见度24 公里0 米

更多历史数据

下载我们的安卓应用程序

从你的主屏幕上轻松地访问你的航空天气。
只需一次付费,您就可以获得无广告的体验。

您会帮助我们保持Metar-Taf.com正常运行吗?
您的贡献有助于网站的进一步开发并支付费用。

没有更多广告

您是捐款5美元还是更多?然后,我们将永远不会再向您展示广告,这是我们永恒的感谢!
捐赠前先登录

METAR Little's Farm

该字段位于加拿大中。

Little's Farm最近未发布观察结果。相反,我们向您显示18 km的报告多倫多皮爾遜國際機場。 该报告是针对2022年1月25日 02:00, 当地时间进行的。

机场观察

风来自西北西 (290°)方向,速度为12 千吨。

可见度为24 公里。

有碎云在8.800 ft的高度。 破损或更高的上限为8.800 ft。

温度为-8 °C,阵风为-18 °C。 露点为-10 °C,相对湿度为86%。 海平面上的气压为1007 压力 (QNH)。

评论

  • 海平面压力为1008,0 压力 (SLP080)
  • AC6

白天

今天,太阳从07:42升起,在17:20降落。 这适用于Little's Farm,世界夏令时可能有所不同。 当地时间与世界标准时间之间的时差为-5 小时。 当前,没有夏令时有效。

公司介绍

我们没有关于这个机场的公司信息。

体会

到Vliegles.nl去找飞行课程,跳伞和其他飞行体验。 浏览页面,了解Little's Farm附近所有可用的活动。 你也可以使用搜索功能来寻找你所在地附近的特定飞行课程、跳伞或其他飞行体验。

您是否要在网站上Little's Farm飞行的天气? 阅读更多   自由!